sensor_id;sensor_type;location;lat;lon;timestamp;pressure;altitude;pressure_sealevel;temperature;humidity
35778;BME280;21899;42.662;23.316;2023-02-17T00:01:49;95326.50;;;1.97;80.82
35778;BME280;21899;42.662;23.316;2023-02-17T00:04:14;95321.84;;;1.94;80.91
35778;BME280;21899;42.662;23.316;2023-02-17T00:06:40;95319.03;;;1.90;80.96
35778;BME280;21899;42.662;23.316;2023-02-17T00:09:05;95309.09;;;1.87;81.83
35778;BME280;21899;42.662;23.316;2023-02-17T00:11:31;95313.31;;;1.88;82.22
35778;BME280;21899;42.662;23.316;2023-02-17T00:13:57;95314.06;;;1.89;82.62
35778;BME280;21899;42.662;23.316;2023-02-17T00:16:25;95314.06;;;1.89;82.71
35778;BME280;21899;42.662;23.316;2023-02-17T00:18:54;95301.31;;;1.82;82.71
35778;BME280;21899;42.662;23.316;2023-02-17T00:21:21;95309.88;;;1.88;82.58
35778;BME280;21899;42.662;23.316;2023-02-17T00:23:48;95305.53;;;1.83;82.68
35778;BME280;21899;42.662;23.316;2023-02-17T00:26:15;95310.50;;;1.85;83.09
35778;BME280;21899;42.662;23.316;2023-02-17T00:28:42;95298.50;;;1.79;83.22
35778;BME280;21899;42.662;23.316;2023-02-17T00:31:10;95294.19;;;1.83;83.31
35778;BME280;21899;42.662;23.316;2023-02-17T00:33:36;95290.59;;;1.79;82.81
35778;BME280;21899;42.662;23.316;2023-02-17T00:36:04;95290.28;;;1.80;82.98
35778;BME280;21899;42.662;23.316;2023-02-17T00:38:30;95283.94;;;1.90;83.21
35778;BME280;21899;42.662;23.316;2023-02-17T00:40:55;95282.69;;;1.87;83.32
35778;BME280;21899;42.662;23.316;2023-02-17T00:43:21;95281.63;;;1.88;83.23
35778;BME280;21899;42.662;23.316;2023-02-17T00:45:46;95274.47;;;1.89;83.07
35778;BME280;21899;42.662;23.316;2023-02-17T00:48:11;95266.69;;;1.75;83.22
35778;BME280;21899;42.662;23.316;2023-02-17T00:50:37;95276.63;;;1.78;83.27
35778;BME280;21899;42.662;23.316;2023-02-17T00:53:02;95274.59;;;1.67;83.63
35778;BME280;21899;42.662;23.316;2023-02-17T00:55:27;95281.41;;;1.68;83.75
35778;BME280;21899;42.662;23.316;2023-02-17T00:57:53;95281.34;;;1.51;85.09
35778;BME280;21899;42.662;23.316;2023-02-17T01:00:18;95282.13;;;1.51;84.72
35778;BME280;21899;42.662;23.316;2023-02-17T01:02:44;95263.28;;;1.35;85.00
35778;BME280;21899;42.662;23.316;2023-02-17T01:05:09;95268.13;;;1.42;84.90
35778;BME280;21899;42.662;23.316;2023-02-17T01:07:35;95264.28;;;1.48;84.57
35778;BME280;21899;42.662;23.316;2023-02-17T01:10:03;95273.75;;;1.58;83.98
35778;BME280;21899;42.662;23.316;2023-02-17T01:12:28;95267.25;;;1.55;83.70
35778;BME280;21899;42.662;23.316;2023-02-17T01:14:53;95276.75;;;1.65;83.44
35778;BME280;21899;42.662;23.316;2023-02-17T01:17:19;95264.00;;;1.58;84.29
35778;BME280;21899;42.662;23.316;2023-02-17T01:19:44;95277.81;;;1.64;84.68
35778;BME280;21899;42.662;23.316;2023-02-17T01:22:09;95276.88;;;1.60;84.36
35778;BME280;21899;42.662;23.316;2023-02-17T01:24:35;95277.50;;;1.57;84.39
35778;BME280;21899;42.662;23.316;2023-02-17T01:27:00;95271.72;;;1.46;84.21
35778;BME280;21899;42.662;23.316;2023-02-17T01:29:25;95265.03;;;1.40;84.99
35778;BME280;21899;42.662;23.316;2023-02-17T01:31:51;95268.41;;;1.41;85.49
35778;BME280;21899;42.662;23.316;2023-02-17T01:34:16;95260.22;;;1.42;85.76
35778;BME280;21899;42.662;23.316;2023-02-17T01:36:42;95256.63;;;1.38;86.12
35778;BME280;21899;42.662;23.316;2023-02-17T01:39:07;95255.66;;;1.34;85.79
35778;BME280;21899;42.662;23.316;2023-02-17T01:41:32;95255.84;;;1.38;86.35
35778;BME280;21899;42.662;23.316;2023-02-17T01:44:12;95253.84;;;1.43;86.21
35778;BME280;21899;42.662;23.316;2023-02-17T01:46:40;95255.53;;;1.39;85.59
35778;BME280;21899;42.662;23.316;2023-02-17T01:49:34;95254.94;;;1.42;85.00
35778;BME280;21899;42.662;23.316;2023-02-17T01:52:10;95253.78;;;1.26;85.44
35778;BME280;21899;42.662;23.316;2023-02-17T01:54:43;95260.31;;;1.28;85.18
35778;BME280;21899;42.662;23.316;2023-02-17T01:57:12;95259.06;;;1.26;85.61
35778;BME280;21899;42.662;23.316;2023-02-17T01:59:39;95251.72;;;1.14;86.40
35778;BME280;21899;42.662;23.316;2023-02-17T02:02:06;95245.81;;;1.09;86.73
35778;BME280;21899;42.662;23.316;2023-02-17T02:04:34;95254.31;;;1.06;86.88
35778;BME280;21899;42.662;23.316;2023-02-17T02:07:01;95262.09;;;1.11;87.00
35778;BME280;21899;42.662;23.316;2023-02-17T02:09:34;95251.22;;;1.04;87.05
35778;BME280;21899;42.662;23.316;2023-02-17T02:12:00;95245.94;;;1.04;87.63
35778;BME280;21899;42.662;23.316;2023-02-17T02:14:26;95248.88;;;1.02;87.26
35778;BME280;21899;42.662;23.316;2023-02-17T02:22:55;95250.44;;;1.03;87.14
35778;BME280;21899;42.662;23.316;2023-02-17T02:25:53;95256.13;;;0.97;87.64
35778;BME280;21899;42.662;23.316;2023-02-17T02:31:11;95266.06;;;1.00;87.83
35778;BME280;21899;42.662;23.316;2023-02-17T02:33:55;95258.66;;;1.02;87.63
35778;BME280;21899;42.662;23.316;2023-02-17T02:36:31;95264.53;;;0.99;88.23
35778;BME280;21899;42.662;23.316;2023-02-17T02:39:02;95244.81;;;0.96;88.62
35778;BME280;21899;42.662;23.316;2023-02-17T02:44:06;95256.63;;;0.99;88.41
35778;BME280;21899;42.662;23.316;2023-02-17T02:46:31;95255.66;;;0.95;88.99
35778;BME280;21899;42.662;23.316;2023-02-17T02:48:57;95251.47;;;0.94;88.93
35778;BME280;21899;42.662;23.316;2023-02-17T02:54:21;95247.75;;;0.95;88.66
35778;BME280;21899;42.662;23.316;2023-02-17T02:59:33;95250.69;;;0.93;88.21
35778;BME280;21899;42.662;23.316;2023-02-17T03:04:49;95260.66;;;1.05;88.51
35778;BME280;21899;42.662;23.316;2023-02-17T03:07:23;95239.34;;;0.93;87.94
35778;BME280;21899;42.662;23.316;2023-02-17T03:09:53;95255.53;;;1.00;87.75
35778;BME280;21899;42.662;23.316;2023-02-17T03:12:21;95245.59;;;0.97;88.29
35778;BME280;21899;42.662;23.316;2023-02-17T03:14:49;95252.41;;;0.98;88.33
35778;BME280;21899;42.662;23.316;2023-02-17T03:17:15;95249.94;;;1.01;88.00
35778;BME280;21899;42.662;23.316;2023-02-17T03:19:41;95259.75;;;1.09;87.76
35778;BME280;21899;42.662;23.316;2023-02-17T03:24:44;95258.66;;;1.02;88.00
35778;BME280;21899;42.662;23.316;2023-02-17T03:27:09;95253.38;;;1.02;88.50
35778;BME280;21899;42.662;23.316;2023-02-17T03:29:35;95251.22;;;1.04;87.89
35778;BME280;21899;42.662;23.316;2023-02-17T03:32:00;95256.94;;;0.97;87.34
35778;BME280;21899;42.662;23.316;2023-02-17T03:34:26;95245.91;;;0.73;88.23
35778;BME280;21899;42.662;23.316;2023-02-17T03:36:51;95263.25;;;0.66;88.53
35778;BME280;21899;42.662;23.316;2023-02-17T03:39:16;95252.22;;;0.64;88.08
35778;BME280;21899;42.662;23.316;2023-02-17T03:41:42;95240.13;;;0.63;88.75
35778;BME280;21899;42.662;23.316;2023-02-17T03:44:07;95227.09;;;0.58;88.97
35778;BME280;21899;42.662;23.316;2023-02-17T03:46:33;95255.09;;;0.54;89.62
35778;BME280;21899;42.662;23.316;2023-02-17T03:48:58;95250.44;;;0.51;89.83
35778;BME280;21899;42.662;23.316;2023-02-17T03:51:24;95252.66;;;0.57;89.94
35778;BME280;21899;42.662;23.316;2023-02-17T03:53:50;95241.81;;;0.59;89.68
35778;BME280;21899;42.662;23.316;2023-02-17T03:56:16;95245.53;;;0.58;89.57
35778;BME280;21899;42.662;23.316;2023-02-17T03:58:42;95239.66;;;0.61;89.69
35778;BME280;21899;42.662;23.316;2023-02-17T04:01:09;95248.72;;;0.77;89.32
35778;BME280;21899;42.662;23.316;2023-02-17T04:03:35;95261.31;;;0.80;89.82
35778;BME280;21899;42.662;23.316;2023-02-17T04:06:01;95255.53;;;0.78;89.18
35778;BME280;21899;42.662;23.316;2023-02-17T04:08:27;95240.34;;;0.75;89.28
35778;BME280;21899;42.662;23.316;2023-02-17T04:10:54;95250.16;;;0.83;89.04
35778;BME280;21899;42.662;23.316;2023-02-17T04:13:21;95243.94;;;0.79;89.64
35778;BME280;21899;42.662;23.316;2023-02-17T04:15:47;95253.22;;;0.76;89.31
35778;BME280;21899;42.662;23.316;2023-02-17T04:18:13;95258.03;;;0.74;89.30
35778;BME280;21899;42.662;23.316;2023-02-17T04:20:39;95235.31;;;0.65;89.62
35778;BME280;21899;42.662;23.316;2023-02-17T04:23:04;95247.31;;;0.71;89.57
35778;BME280;21899;42.662;23.316;2023-02-17T04:25:32;95256.47;;;0.73;90.14
35778;BME280;21899;42.662;23.316;2023-02-17T04:27:58;95247.50;;;0.74;89.40
35778;BME280;21899;42.662;23.316;2023-02-17T04:30:23;95236.16;;;0.74;89.67
35778;BME280;21899;42.662;23.316;2023-02-17T04:32:49;95255.09;;;0.76;90.01
35778;BME280;21899;42.662;23.316;2023-02-17T04:35:14;95248.69;;;0.68;89.57
35778;BME280;21899;42.662;23.316;2023-02-17T04:37:39;95255.66;;;0.73;89.40
35778;BME280;21899;42.662;23.316;2023-02-17T04:40:06;95260.19;;;0.72;88.90
35778;BME280;21899;42.662;23.316;2023-02-17T04:42:35;95249.94;;;0.71;88.99
35778;BME280;21899;42.662;23.316;2023-02-17T04:45:00;95258.31;;;0.73;89.11
35778;BME280;21899;42.662;23.316;2023-02-17T04:47:26;95256.28;;;0.70;88.59
35778;BME280;21899;42.662;23.316;2023-02-17T04:49:51;95263.84;;;0.63;89.64
35778;BME280;21899;42.662;23.316;2023-02-17T04:52:16;95260.59;;;0.66;89.05
35778;BME280;21899;42.662;23.316;2023-02-17T04:54:42;95272.88;;;0.70;88.97
35778;BME280;21899;42.662;23.316;2023-02-17T04:57:07;95252.28;;;0.72;89.42
35778;BME280;21899;42.662;23.316;2023-02-17T04:59:33;95270.13;;;0.75;89.00
35778;BME280;21899;42.662;23.316;2023-02-17T05:01:58;95257.25;;;0.74;89.57
35778;BME280;21899;42.662;23.316;2023-02-17T05:04:23;95244.84;;;0.74;88.86
35778;BME280;21899;42.662;23.316;2023-02-17T05:06:49;95266.94;;;0.87;88.81
35778;BME280;21899;42.662;23.316;2023-02-17T05:09:14;95262.22;;;0.75;89.42
35778;BME280;21899;42.662;23.316;2023-02-17T05:11:39;95267.66;;;0.79;89.60
35778;BME280;21899;42.662;23.316;2023-02-17T05:14:05;95269.09;;;0.85;89.27
35778;BME280;21899;42.662;23.316;2023-02-17T05:16:30;95268.66;;;0.91;88.21
35778;BME280;21899;42.662;23.316;2023-02-17T05:18:55;95288.81;;;0.96;88.12
35778;BME280;21899;42.662;23.316;2023-02-17T05:21:21;95288.19;;;0.90;88.45
35778;BME280;21899;42.662;23.316;2023-02-17T05:23:46;95282.75;;;0.87;88.04
35778;BME280;21899;42.662;23.316;2023-02-17T05:26:12;95273.75;;;0.88;88.01
35778;BME280;21899;42.662;23.316;2023-02-17T05:28:37;95293.69;;;1.02;87.33
35778;BME280;21899;42.662;23.316;2023-02-17T05:31:03;95284.41;;;1.05;87.45
35778;BME280;21899;42.662;23.316;2023-02-17T05:33:29;95306.91;;;1.11;87.91
35778;BME280;21899;42.662;23.316;2023-02-17T05:35:54;95301.50;;;1.16;88.07
35778;BME280;21899;42.662;23.316;2023-02-17T05:38:20;95294.72;;;1.23;87.56
35778;BME280;21899;42.662;23.316;2023-02-17T05:40:45;95285.22;;;1.14;87.61
35778;BME280;21899;42.662;23.316;2023-02-17T05:43:11;95303.22;;;1.12;88.08
35778;BME280;21899;42.662;23.316;2023-02-17T05:45:36;95316.59;;;1.24;87.22
35778;BME280;21899;42.662;23.316;2023-02-17T05:48:02;95307.19;;;1.31;87.13
35778;BME280;21899;42.662;23.316;2023-02-17T05:50:27;95315.25;;;1.35;86.22
35778;BME280;21899;42.662;23.316;2023-02-17T05:52:52;95312.31;;;1.37;85.88
35778;BME280;21899;42.662;23.316;2023-02-17T05:55:18;95314.38;;;1.48;86.43
35778;BME280;21899;42.662;23.316;2023-02-17T05:57:43;95310.53;;;1.54;86.48
35778;BME280;21899;42.662;23.316;2023-02-17T06:00:09;95315.06;;;1.62;85.90
35778;BME280;21899;42.662;23.316;2023-02-17T06:02:35;95320.69;;;1.69;85.88
35778;BME280;21899;42.662;23.316;2023-02-17T06:05:00;95324.59;;;1.72;85.78
35778;BME280;21899;42.662;23.316;2023-02-17T06:07:25;95317.31;;;1.86;85.11
35778;BME280;21899;42.662;23.316;2023-02-17T06:09:51;95316.72;;;1.97;85.09
35778;BME280;21899;42.662;23.316;2023-02-17T06:12:16;95301.03;;;1.92;84.72
35778;BME280;21899;42.662;23.316;2023-02-17T06:14:42;95312.56;;;2.05;83.80
35778;BME280;21899;42.662;23.316;2023-02-17T06:17:07;95322.38;;;2.21;83.63
35778;BME280;21899;42.662;23.316;2023-02-17T06:19:32;95318.03;;;2.25;82.81
35778;BME280;21899;42.662;23.316;2023-02-17T06:21:58;95321.47;;;2.34;82.52
35778;BME280;21899;42.662;23.316;2023-02-17T06:24:23;95331.72;;;2.44;81.28
35778;BME280;21899;42.662;23.316;2023-02-17T06:26:49;95318.97;;;2.38;80.60
35778;BME280;21899;42.662;23.316;2023-02-17T06:29:14;95336.09;;;2.49;80.34
35778;BME280;21899;42.662;23.316;2023-02-17T06:31:40;95322.25;;;2.60;79.31
35778;BME280;21899;42.662;23.316;2023-02-17T06:34:05;95310.28;;;2.54;78.22
35778;BME280;21899;42.662;23.316;2023-02-17T06:36:30;95329.56;;;2.81;77.63
35778;BME280;21899;42.662;23.316;2023-02-17T06:38:56;95324.72;;;2.91;77.32
35778;BME280;21899;42.662;23.316;2023-02-17T06:41:21;95328.28;;;3.04;76.39
35778;BME280;21899;42.662;23.316;2023-02-17T06:43:46;95328.72;;;3.14;75.06
35778;BME280;21899;42.662;23.316;2023-02-17T06:46:12;95328.72;;;3.14;75.02
35778;BME280;21899;42.662;23.316;2023-02-17T06:48:37;95342.25;;;3.21;74.64
35778;BME280;21899;42.662;23.316;2023-02-17T06:51:03;95341.78;;;3.19;74.81
35778;BME280;21899;42.662;23.316;2023-02-17T06:53:28;95343.34;;;3.29;74.55
35778;BME280;21899;42.662;23.316;2023-02-17T06:55:54;95347.53;;;3.38;74.58
35778;BME280;21899;42.662;23.316;2023-02-17T06:58:20;95340.19;;;3.44;72.89
35778;BME280;21899;42.662;23.316;2023-02-17T07:00:45;95350.16;;;3.38;72.87
35778;BME280;21899;42.662;23.316;2023-02-17T07:03:11;95348.75;;;3.41;72.77
35778;BME280;21899;42.662;23.316;2023-02-17T07:05:36;95344.41;;;3.45;73.46
35778;BME280;21899;42.662;23.316;2023-02-17T07:08:04;95344.53;;;3.57;72.96
35778;BME280;21899;42.662;23.316;2023-02-17T07:10:31;95332.50;;;3.59;71.74
35778;BME280;21899;42.662;23.316;2023-02-17T07:12:56;95346.50;;;3.68;72.17
35778;BME280;21899;42.662;23.316;2023-02-17T07:15:22;95346.69;;;3.63;72.09
35778;BME280;21899;42.662;23.316;2023-02-17T07:17:47;95356.34;;;3.59;72.22
35778;BME280;21899;42.662;23.316;2023-02-17T07:20:12;95353.06;;;3.54;72.54
35778;BME280;21899;42.662;23.316;2023-02-17T07:22:38;95359.88;;;3.72;72.34
35778;BME280;21899;42.662;23.316;2023-02-17T07:25:04;95366.34;;;3.91;71.53
35778;BME280;21899;42.662;23.316;2023-02-17T07:27:30;95348.22;;;4.02;70.76
35778;BME280;21899;42.662;23.316;2023-02-17T07:29:56;95363.13;;;4.15;70.77
35778;BME280;21899;42.662;23.316;2023-02-17T07:32:22;95363.81;;;4.33;70.40
35778;BME280;21899;42.662;23.316;2023-02-17T07:34:47;95370.44;;;4.47;69.07
35778;BME280;21899;42.662;23.316;2023-02-17T07:37:12;95367.97;;;4.63;68.65
35778;BME280;21899;42.662;23.316;2023-02-17T07:39:38;95366.44;;;4.82;67.87
35778;BME280;21899;42.662;23.316;2023-02-17T07:42:03;95358.00;;;5.01;67.19
35778;BME280;21899;42.662;23.316;2023-02-17T07:44:30;95361.25;;;5.06;65.94
35778;BME280;21899;42.662;23.316;2023-02-17T07:46:56;95370.69;;;5.16;66.78
35778;BME280;21899;42.662;23.316;2023-02-17T07:49:21;95367.75;;;5.29;65.76
35778;BME280;21899;42.662;23.316;2023-02-17T07:51:48;95371.34;;;5.46;64.86
35778;BME280;21899;42.662;23.316;2023-02-17T07:54:14;95359.22;;;5.69;64.31
35778;BME280;21899;42.662;23.316;2023-02-17T07:56:39;95356.88;;;5.88;63.05
35778;BME280;21899;42.662;23.316;2023-02-17T07:59:09;95353.78;;;6.10;62.68
35778;BME280;21899;42.662;23.316;2023-02-17T08:01:35;95352.88;;;6.30;61.32
35778;BME280;21899;42.662;23.316;2023-02-17T08:04:01;95364.19;;;6.51;59.42
35778;BME280;21899;42.662;23.316;2023-02-17T08:06:27;95352.75;;;6.63;58.81
35778;BME280;21899;42.662;23.316;2023-02-17T08:08:53;95352.03;;;6.78;58.45
35778;BME280;21899;42.662;23.316;2023-02-17T08:11:38;95354.34;;;6.91;56.79
35778;BME280;21899;42.662;23.316;2023-02-17T08:14:24;95355.84;;;7.04;56.21
35778;BME280;21899;42.662;23.316;2023-02-17T08:16:50;95353.06;;;7.13;55.57
35778;BME280;21899;42.662;23.316;2023-02-17T08:19:16;95354.28;;;7.15;54.93
35778;BME280;21899;42.662;23.316;2023-02-17T08:21:42;95355.34;;;7.26;55.12
35778;BME280;21899;42.662;23.316;2023-02-17T08:24:08;95364.78;;;7.51;54.61
35778;BME280;21899;42.662;23.316;2023-02-17T08:26:33;95347.66;;;7.52;53.93
35778;BME280;21899;42.662;23.316;2023-02-17T08:28:59;95344.25;;;7.67;53.67
35778;BME280;21899;42.662;23.316;2023-02-17T08:31:27;95353.72;;;7.80;53.36
35778;BME280;21899;42.662;23.316;2023-02-17T08:33:53;95351.53;;;7.98;53.04
35778;BME280;21899;42.662;23.316;2023-02-17T08:36:20;95347.75;;;8.15;52.00
35778;BME280;21899;42.662;23.316;2023-02-17T08:38:50;95355.81;;;8.34;51.56
35778;BME280;21899;42.662;23.316;2023-02-17T08:41:21;95345.41;;;8.44;50.83
35778;BME280;21899;42.662;23.316;2023-02-17T08:43:48;95349.59;;;8.61;50.26
35778;BME280;21899;42.662;23.316;2023-02-17T08:46:14;95344.56;;;8.75;49.56
35778;BME280;21899;42.662;23.316;2023-02-17T08:48:40;95347.91;;;8.87;49.52
35778;BME280;21899;42.662;23.316;2023-02-17T08:51:06;95346.56;;;8.97;49.05
35778;BME280;21899;42.662;23.316;2023-02-17T08:53:33;95342.56;;;9.06;48.32
35778;BME280;21899;42.662;23.316;2023-02-17T08:55:58;95332.38;;;9.12;48.27
35778;BME280;21899;42.662;23.316;2023-02-17T08:58:24;95338.06;;;9.30;47.67
35778;BME280;21899;42.662;23.316;2023-02-17T09:00:50;95337.69;;;9.50;46.68
35778;BME280;21899;42.662;23.316;2023-02-17T09:03:15;95347.63;;;9.72;46.00
35778;BME280;21899;42.662;23.316;2023-02-17T09:05:41;95337.00;;;9.98;45.33
35778;BME280;21899;42.662;23.316;2023-02-17T09:08:06;95339.66;;;10.17;44.35
35778;BME280;21899;42.662;23.316;2023-02-17T09:10:32;95340.78;;;10.39;41.20
35778;BME280;21899;42.662;23.316;2023-02-17T09:12:57;95335.00;;;10.63;40.22
35778;BME280;21899;42.662;23.316;2023-02-17T09:15:23;95335.34;;;10.88;37.59
35778;BME280;21899;42.662;23.316;2023-02-17T09:17:48;95336.75;;;11.08;37.06
35778;BME280;21899;42.662;23.316;2023-02-17T09:20:14;95327.34;;;11.21;37.05
35778;BME280;21899;42.662;23.316;2023-02-17T09:22:39;95334.19;;;11.48;35.67
35778;BME280;21899;42.662;23.316;2023-02-17T09:25:05;95335.78;;;11.56;35.64
35778;BME280;21899;42.662;23.316;2023-02-17T09:27:30;95329.06;;;11.69;34.64
35778;BME280;21899;42.662;23.316;2023-02-17T09:29:56;95340.94;;;11.68;34.32
35778;BME280;21899;42.662;23.316;2023-02-17T09:32:22;95346.34;;;11.71;34.68
35778;BME280;21899;42.662;23.316;2023-02-17T09:34:47;95340.25;;;11.74;34.32
35778;BME280;21899;42.662;23.316;2023-02-17T09:37:17;95338.41;;;11.82;33.66
35778;BME280;21899;42.662;23.316;2023-02-17T09:39:44;95334.59;;;11.83;34.45
35778;BME280;21899;42.662;23.316;2023-02-17T09:42:21;95335.03;;;11.92;33.88
35778;BME280;21899;42.662;23.316;2023-02-17T09:44:50;95331.91;;;11.83;33.73
35778;BME280;21899;42.662;23.316;2023-02-17T09:47:25;95337.34;;;11.94;33.49
35778;BME280;21899;42.662;23.316;2023-02-17T09:49:58;95341.97;;;11.93;33.27
35778;BME280;21899;42.662;23.316;2023-02-17T09:52:26;95341.19;;;11.93;32.81
35778;BME280;21899;42.662;23.316;2023-02-17T09:55:12;95324.75;;;11.98;32.98
35778;BME280;21899;42.662;23.316;2023-02-17T09:57:48;95341.63;;;11.98;33.07
35778;BME280;21899;42.662;23.316;2023-02-17T10:00:20;95314.31;;;11.89;32.17
35778;BME280;21899;42.662;23.316;2023-02-17T10:05:22;95329.34;;;11.97;32.64
35778;BME280;21899;42.662;23.316;2023-02-17T10:08:09;95319.09;;;12.06;31.84
35778;BME280;21899;42.662;23.316;2023-02-17T10:10:45;95311.41;;;12.08;31.74
35778;BME280;21899;42.662;23.316;2023-02-17T10:13:14;95312.28;;;12.19;31.48
35778;BME280;21899;42.662;23.316;2023-02-17T10:15:43;95316.97;;;12.29;31.55
35778;BME280;21899;42.662;23.316;2023-02-17T10:18:25;95313.19;;;12.37;31.10
35778;BME280;21899;42.662;23.316;2023-02-17T10:20:58;95306.53;;;12.17;31.04
35778;BME280;21899;42.662;23.316;2023-02-17T10:23:27;95303.91;;;12.24;31.01
35778;BME280;21899;42.662;23.316;2023-02-17T10:28:56;95293.72;;;12.47;30.52
35778;BME280;21899;42.662;23.316;2023-02-17T10:31:40;95291.44;;;12.49;30.31
35778;BME280;21899;42.662;23.316;2023-02-17T10:34:34;95276.03;;;12.43;30.08
35778;BME280;21899;42.662;23.316;2023-02-17T10:37:13;95279.50;;;12.47;30.78
35778;BME280;21899;42.662;23.316;2023-02-17T10:39:46;95280.31;;;12.51;30.87
35778;BME280;21899;42.662;23.316;2023-02-17T10:44:50;95275.38;;;12.63;30.81
35778;BME280;21899;42.662;23.316;2023-02-17T10:47:17;95259.69;;;12.65;30.85
35778;BME280;21899;42.662;23.316;2023-02-17T10:49:46;95273.56;;;12.81;30.98
35778;BME280;21899;42.662;23.316;2023-02-17T10:52:22;95266.66;;;12.80;30.79
35778;BME280;21899;42.662;23.316;2023-02-17T10:54:53;95261.66;;;12.79;30.59
35778;BME280;21899;42.662;23.316;2023-02-17T10:57:22;95259.78;;;12.86;30.55
35778;BME280;21899;42.662;23.316;2023-02-17T10:59:49;95252.78;;;12.71;30.68
35778;BME280;21899;42.662;23.316;2023-02-17T11:04:44;95272.31;;;12.61;31.06
35778;BME280;21899;42.662;23.316;2023-02-17T11:07:12;95262.34;;;12.65;31.24
35778;BME280;21899;42.662;23.316;2023-02-17T11:09:49;95263.13;;;12.66;31.13
35778;BME280;21899;42.662;23.316;2023-02-17T11:12:28;95269.31;;;12.73;31.48
35778;BME280;21899;42.662;23.316;2023-02-17T11:14:56;95266.63;;;12.73;31.47
35778;BME280;21899;42.662;23.316;2023-02-17T11:17:28;95263.16;;;12.73;31.39
35778;BME280;21899;42.662;23.316;2023-02-17T11:20:01;95252.34;;;12.59;31.55
35778;BME280;21899;42.662;23.316;2023-02-17T11:22:37;95239.69;;;12.63;31.62
35778;BME280;21899;42.662;23.316;2023-02-17T11:25:27;95259.38;;;12.77;31.36
35778;BME280;21899;42.662;23.316;2023-02-17T11:27:57;95248.97;;;12.76;31.59
35778;BME280;21899;42.662;23.316;2023-02-17T11:30:24;95249.38;;;12.81;31.28
35778;BME280;21899;42.662;23.316;2023-02-17T11:32:50;95252.50;;;12.90;31.22
35778;BME280;21899;42.662;23.316;2023-02-17T11:38:18;95246.09;;;13.05;31.43
35778;BME280;21899;42.662;23.316;2023-02-17T11:40:59;95246.81;;;13.06;31.33
35778;BME280;21899;42.662;23.316;2023-02-17T11:43:26;95240.69;;;13.09;31.90
35778;BME280;21899;42.662;23.316;2023-02-17T11:51:31;95231.09;;;13.04;31.71
35778;BME280;21899;42.662;23.316;2023-02-17T11:54:14;95228.78;;;13.06;32.31
35778;BME280;21899;42.662;23.316;2023-02-17T11:56:56;95229.97;;;13.13;32.60
35778;BME280;21899;42.662;23.316;2023-02-17T12:02:16;95211.50;;;13.07;32.63
35778;BME280;21899;42.662;23.316;2023-02-17T12:10:36;95220.41;;;13.33;32.42
35778;BME280;21899;42.662;23.316;2023-02-17T12:18:52;95207.75;;;13.30;32.40
35778;BME280;21899;42.662;23.316;2023-02-17T12:21:32;95188.13;;;13.26;32.60
35778;BME280;21899;42.662;23.316;2023-02-17T12:24:40;95200.88;;;13.50;31.82
35778;BME280;21899;42.662;23.316;2023-02-17T12:32:38;95186.25;;;13.51;32.04
35778;BME280;21899;42.662;23.316;2023-02-17T12:35:22;95174.34;;;13.41;31.90
35778;BME280;21899;42.662;23.316;2023-02-17T12:38:00;95163.22;;;13.50;31.99
35778;BME280;21899;42.662;23.316;2023-02-17T12:40:35;95169.34;;;13.61;31.74
35778;BME280;21899;42.662;23.316;2023-02-17T12:45:42;95169.38;;;13.68;31.65
35778;BME280;21899;42.662;23.316;2023-02-17T12:48:33;95166.66;;;13.61;31.74
35778;BME280;21899;42.662;23.316;2023-02-17T12:53:52;95164.72;;;13.44;31.63
35778;BME280;21899;42.662;23.316;2023-02-17T12:56:28;95151.66;;;13.46;31.88
35778;BME280;21899;42.662;23.316;2023-02-17T12:59:18;95157.06;;;13.39;31.90
35778;BME280;21899;42.662;23.316;2023-02-17T13:01:51;95153.59;;;13.42;32.10
35778;BME280;21899;42.662;23.316;2023-02-17T13:04:21;95153.59;;;13.42;31.94
35778;BME280;21899;42.662;23.316;2023-02-17T13:10:03;95151.28;;;13.51;31.52
35778;BME280;21899;42.662;23.316;2023-02-17T13:12:36;95155.50;;;13.59;31.88
35778;BME280;21899;42.662;23.316;2023-02-17T13:15:10;95154.75;;;13.72;31.70
35778;BME280;21899;42.662;23.316;2023-02-17T13:17:58;95159.38;;;13.79;31.37
35778;BME280;21899;42.662;23.316;2023-02-17T13:20:37;95152.47;;;13.81;31.44
35778;BME280;21899;42.662;23.316;2023-02-17T13:23:10;95147.44;;;13.83;30.60
35778;BME280;21899;42.662;23.316;2023-02-17T13:25:36;95148.22;;;13.84;30.84
35778;BME280;21899;42.662;23.316;2023-02-17T13:28:15;95150.91;;;13.91;30.50
35778;BME280;21899;42.662;23.316;2023-02-17T13:30:44;95144.75;;;13.90;30.37
35778;BME280;21899;42.662;23.316;2023-02-17T13:35:45;95150.13;;;13.94;29.67
35778;BME280;21899;42.662;23.316;2023-02-17T13:38:10;95140.13;;;13.91;29.46
35778;BME280;21899;42.662;23.316;2023-02-17T13:40:41;95142.06;;;14.01;29.12
35778;BME280;21899;42.662;23.316;2023-02-17T13:43:14;95144.34;;;13.99;28.91
35778;BME280;21899;42.662;23.316;2023-02-17T13:45:47;95142.81;;;13.91;28.90
35778;BME280;21899;42.662;23.316;2023-02-17T13:50:54;95143.22;;;13.79;28.54
35778;BME280;21899;42.662;23.316;2023-02-17T13:56:05;95150.16;;;13.73;29.23
35778;BME280;21899;42.662;23.316;2023-02-17T13:58:33;95146.69;;;13.76;29.25
35778;BME280;21899;42.662;23.316;2023-02-17T14:01:01;95135.53;;;13.77;29.01
35778;BME280;21899;42.662;23.316;2023-02-17T14:03:28;95141.31;;;13.76;28.51
35778;BME280;21899;42.662;23.316;2023-02-17T14:05:58;95142.47;;;13.61;27.55
35778;BME280;21899;42.662;23.316;2023-02-17T14:10:52;95137.09;;;13.50;27.71
35778;BME280;21899;42.662;23.316;2023-02-17T14:13:18;95138.63;;;13.55;27.67
35778;BME280;21899;42.662;23.316;2023-02-17T14:15:51;95145.13;;;13.54;28.03
35778;BME280;21899;42.662;23.316;2023-02-17T14:18:26;95134.75;;;13.49;28.52
35778;BME280;21899;42.662;23.316;2023-02-17T14:21:11;95143.22;;;13.44;28.84
35778;BME280;21899;42.662;23.316;2023-02-17T14:23:43;95140.94;;;13.39;29.33
35778;BME280;21899;42.662;23.316;2023-02-17T14:26:18;95142.44;;;13.33;29.50